Time;durP1;ratioP1;P1;durP2;ratioP2;P2;SDS_P1;SDS_P2;PMS_P1;PMS_P2;Temp;Humidity;BMP_temperature;BMP_pressure;BME280_temperature;BME280_humidity;BME280_pressure;Samples;Min_cycle;Max_cycle;Signal;HPM_P1;HPM_P2
2022/08/05 00:00:09;;;;;;;3.00;2.70;;;;;;;;;;5095110;28;20463;-71
2022/08/05 00:02:37;;;;;;;4.30;2.60;;;;;;;;;;5096241;28;20535;-72
2022/08/05 00:05:06;;;;;;;3.90;2.37;;;;;;;;;;5096691;28;20455;-72
2022/08/05 00:07:33;;;;;;;2.87;2.67;;;;;;;;;;5095845;28;20486;-71
2022/08/05 00:10:01;;;;;;;3.03;2.73;;;;;;;;;;5094209;28;20523;-71
2022/08/05 00:12:28;;;;;;;3.03;2.50;;;;;;;;;;5094397;28;20492;-71
2022/08/05 00:14:55;;;;;;;2.90;2.63;;;;;;;;;;5093815;28;20448;-70
2022/08/05 00:17:22;;;;;;;3.00;2.77;;;;;;;;;;5094345;28;20476;-71
2022/08/05 00:19:49;;;;;;;2.40;2.23;;;;;;;;;;5094061;28;20436;-73
2022/08/05 00:22:18;;;;;;;2.43;2.23;;;;;;;;;;5094022;28;20459;-71
2022/08/05 00:24:45;;;;;;;2.40;2.00;;;;;;;;;;5093948;28;20448;-72
2022/08/05 00:27:12;;;;;;;3.37;2.53;;;;;;;;;;5094404;28;20456;-71
2022/08/05 00:29:39;;;;;;;3.00;2.80;;;;;;;;;;5093780;28;20536;-71
2022/08/05 00:32:07;;;;;;;2.53;2.20;;;;;;;;;;5093997;28;20527;-71
2022/08/05 00:34:34;;;;;;;2.37;2.17;;;;;;;;;;5093989;28;20919;-71
2022/08/05 00:37:02;;;;;;;3.17;2.63;;;;;;;;;;5093501;28;21008;-71
2022/08/05 00:39:30;;;;;;;3.07;2.83;;;;;;;;;;5093975;28;20449;-71
2022/08/05 00:41:57;;;;;;;3.77;2.70;;;;;;;;;;5093273;28;21104;-71
2022/08/05 00:44:25;;;;;;;2.20;2.10;;;;;;;;;;5093991;28;21011;-72
2022/08/05 00:46:52;;;;;;;3.57;2.93;;;;;;;;;;5093469;28;20484;-72
2022/08/05 00:49:19;;;;;;;2.70;2.50;;;;;;;;;;5093989;28;20445;-74
2022/08/05 00:51:46;;;;;;;2.17;2.07;;;;;;;;;;5092508;28;20441;-72
2022/08/05 00:54:13;;;;;;;2.00;1.90;;;;;;;;;;5094060;28;20498;-71
2022/08/05 00:56:42;;;;;;;2.70;2.40;;;;;;;;;;5093376;28;20456;-71
2022/08/05 00:59:09;;;;;;;3.00;2.70;;;;;;;;;;5093834;28;20480;-71
2022/08/05 01:01:36;;;;;;;2.43;2.23;;;;;;;;;;5093491;28;20476;-72
2022/08/05 01:04:04;;;;;;;2.57;2.37;;;;;;;;;;5094076;28;20555;-71
2022/08/05 01:06:31;;;;;;;3.67;2.40;;;;;;;;;;5093556;28;20453;-71
2022/08/05 01:08:59;;;;;;;2.40;2.20;;;35.60;1.00;;;;;;5092743;28;20457;-71
2022/08/05 01:11:33;;;;;;;2.57;2.30;;;24.50;99.90;;;;;;5093277;28;20458;-73
2022/08/05 01:14:14;;;;;;;2.70;1.60;;;24.90;99.90;;;;;;5092713;28;20473;-71
2022/08/05 01:16:50;;;;;;;2.10;1.90;;;25.20;69.00;;;;;;5092728;28;20522;-72
2022/08/05 01:19:30;;;;;;;2.07;1.80;;;25.30;57.90;;;;;;5093687;28;20801;-72
2022/08/05 01:22:14;;;;;;;2.30;2.10;;;25.60;46.60;;;;;;5092345;28;20516;-71
2022/08/05 01:25:08;;;;;;;2.10;1.83;;;25.90;40.10;;;;;;5092524;28;20998;-72
2022/08/05 01:27:49;;;;;;;2.30;1.80;;;;;;;;;;5093214;28;20540;-72
2022/08/05 01:30:17;;;;;;;5.13;1.93;;;;;;;;;;5093439;28;20440;-72
2022/08/05 01:32:46;;;;;;;3.33;2.10;;;;;;;;;;5092056;28;20491;-72
2022/08/05 01:35:15;;;;;;;2.43;2.23;;;;;;;;;;5092930;28;20975;-72
2022/08/05 01:37:44;;;;;;;2.13;1.87;;;;;;;;;;5091497;28;20443;-72
2022/08/05 01:40:12;;;;;;;1.50;1.30;;;;;;;;;;5093095;28;20441;-72
2022/08/05 01:42:40;;;;;;;2.03;1.80;;;;;;;;;;5092123;28;20452;-71
2022/08/05 01:45:10;;;;;;;1.70;1.60;;;;;;;;;;5093303;28;20936;-71
2022/08/05 01:47:37;;;;;;;2.00;1.60;;;;;;;;;;5092943;28;20524;-72
2022/08/05 01:50:06;;;;;;;2.70;1.70;;;;;;;;;;5092774;28;20449;-71
2022/08/05 01:52:36;;;;;;;2.20;1.67;;;;;;;;;;5092155;28;20449;-71
2022/08/05 01:55:06;;;;;;;2.40;2.20;;;;;;;;;;5092744;28;20441;-71
2022/08/05 01:57:36;;;;;;;2.13;1.60;;;;;;;;;;5092863;28;20440;-71
2022/08/05 02:00:04;;;;;;;3.27;1.80;;;;;;;;;;5092827;28;20817;-71
2022/08/05 02:02:33;;;;;;;2.90;2.20;;;;;;;;;;5091959;28;20452;-71
2022/08/05 02:05:01;;;;;;;4.03;2.00;;;;;;;;;;5091819;28;20455;-71
2022/08/05 02:07:28;;;;;;;3.50;2.00;;;;;;;;;;5091991;28;20465;-71
2022/08/05 02:09:56;;;;;;;2.17;1.90;;;;;;;;;;5091649;28;20936;-71
2022/08/05 02:12:25;;;;;;;2.20;2.00;;;;;;;;;;5091852;28;20946;-71
2022/08/05 02:14:53;;;;;;;2.00;1.80;;;;;;;;;;5092245;28;20449;-72
2022/08/05 02:17:29;;;;;;;3.20;2.00;;;;;;;;;;5092448;28;20452;-71
2022/08/05 02:20:01;;;;;;;2.73;2.13;;;;;;;;;;5091359;28;20962;-72
2022/08/05 02:22:29;;;;;;;3.10;1.87;;;;;;;;;;5091833;28;20451;-71
2022/08/05 02:25:00;;;;;;;2.37;2.13;;;;;;;;;;5091645;28;20536;-71
2022/08/05 02:27:28;;;;;;;1.77;1.67;;;;;;;;;;5092027;28;20437;-71
2022/08/05 02:29:56;;;;;;;2.63;1.83;;;;;;;;;;5091634;28;20444;-72
2022/08/05 02:32:25;;;;;;;2.20;2.00;;;;;;;;;;5091465;28;20453;-71
2022/08/05 02:34:53;;;;;;;2.10;1.90;;;;;;;;;;5091350;28;20476;-71
2022/08/05 02:37:23;;;;;;;2.33;2.13;;;;;;;;;;5091479;28;20445;-72
2022/08/05 02:39:51;;;;;;;6.67;2.07;;;;;;;;;;5091512;28;20441;-72
2022/08/05 02:42:19;;;;;;;2.70;1.77;;;;;;;;;;5091567;28;20451;-71
2022/08/05 02:44:46;;;;;;;2.47;1.80;;;;;;;;;;5091271;28;20536;-72
2022/08/05 02:47:15;;;;;;;2.80;1.53;;;;;;;;;;5091751;28;20453;-71
2022/08/05 02:49:43;;;;;;;2.00;1.83;;;;;;;;;;5091442;28;20811;-71
2022/08/05 02:52:11;;;;;;;2.53;1.93;;;;;;;;;;5091286;28;20445;-71
2022/08/05 02:54:40;;;;;;;2.10;1.90;;;;;;;;;;5091278;28;20842;-71
2022/08/05 02:57:08;;;;;;;2.13;1.80;;;;;;;;;;5091510;28;20451;-71
2022/08/05 02:59:36;;;;;;;3.10;2.00;;;;;;;;;;5091982;28;20445;-72
2022/08/05 03:02:04;;;;;;;2.30;2.10;;;;;;;;;;5091296;28;20448;-71
2022/08/05 03:04:33;;;;;;;3.03;2.37;;;;;;;;;;5091849;28;20449;-71
2022/08/05 03:07:00;;;;;;;2.43;1.67;;;;;;;;;;5090800;28;20451;-71
2022/08/05 03:09:27;;;;;;;2.17;1.97;;;;;;;;;;5091705;28;20448;-71
2022/08/05 03:11:56;;;;;;;4.17;1.87;;;;;;;;;;5090338;28;20448;-72
2022/08/05 03:14:23;;;;;;;5.00;1.90;;;;;;;;;;5091572;28;20825;-72
2022/08/05 03:16:50;;;;;;;2.07;1.93;;;;;;;;;;5090584;28;20459;-72
2022/08/05 03:19:17;;;;;;;3.63;2.30;;;;;;;;;;5091507;28;20459;-71
2022/08/05 03:21:44;;;;;;;2.10;2.00;;;;;;;;;;5090563;28;20448;-71
2022/08/05 03:24:12;;;;;;;2.97;2.20;;;;;;;;;;5091619;28;20452;-71
2022/08/05 03:26:39;;;;;;;3.90;2.13;;;;;;;;;;5090765;28;20537;-71
2022/08/05 03:29:08;;;;;;;2.07;1.83;;;;;;;;;;5091469;28;20451;-70
2022/08/05 03:31:35;;;;;;;1.83;1.70;;;;;;;;;;5092763;28;20448;-71
2022/08/05 03:34:03;;;;;;;2.50;2.07;;;;;;;;;;5094963;28;20549;-71
2022/08/05 03:36:30;;;;;;;1.97;1.73;;;;;;;;;;5095392;28;20451;-71
2022/08/05 03:38:58;;;;;;;2.40;2.20;;;;;;;;;;5094921;28;20887;-71
2022/08/05 03:41:25;;;;;;;2.87;2.23;;;;;;;;;;5095199;28;20799;-71
2022/08/05 03:43:52;;;;;;;1.67;1.57;;;;;;;;;;5094518;28;20781;-71
2022/08/05 03:46:20;;;;;;;2.20;2.00;;;;;;;;;;5095248;28;20811;-72
2022/08/05 03:48:48;;;;;;;1.90;1.80;;;;;;;;;;5094462;28;20818;-71
2022/08/05 03:51:18;;;;;;;3.10;2.20;;;;;;;;;;5094323;28;20448;-71
2022/08/05 03:53:49;;;;;;;2.23;1.80;;;;;;;;;;5094201;28;20568;-71
2022/08/05 03:56:20;;;;;;;2.17;1.90;;;;;;;;;;5096390;28;20436;-71
2022/08/05 03:58:49;;;;;;;2.70;2.00;;;;;;;;;;5099983;28;20505;-72
2022/08/05 04:01:18;;;;;;;3.70;2.20;;;;;;;;;;5099832;28;20451;-72
2022/08/05 04:03:47;;;;;;;2.60;1.97;;;;;;;;;;5095947;28;20992;-71
2022/08/05 04:06:14;;;;;;;2.20;2.00;;;;;;;;;;5094515;28;20924;-72
2022/08/05 04:08:42;;;;;;;2.00;1.80;;;;;;;;;;5094509;28;20458;-71
2022/08/05 04:11:10;;;;;;;2.37;1.83;;;;;;;;;;5094529;28;20536;-71
2022/08/05 04:13:39;;;;;;;2.50;2.30;;;;;;;;;;5095062;28;20515;-71
2022/08/05 04:16:07;;;;;;;2.23;2.03;;;;;;;;;;5094678;28;20464;-71
2022/08/05 04:18:34;;;;;;;2.70;1.97;;;;;;;;;;5094513;28;20484;-71
2022/08/05 04:21:05;;;;;;;3.13;2.47;;;;;;;;;;5093844;28;20451;-72
2022/08/05 04:23:33;;;;;;;2.43;2.20;;;;;;;;;;5094908;28;20444;-70
2022/08/05 04:26:00;;;;;;;3.83;2.40;;;;;;;;;;5093818;28;20506;-71
2022/08/05 04:28:27;;;;;;;4.57;2.13;;;;;;;;;;5094578;28;20555;-70
2022/08/05 04:30:54;;;;;;;2.40;2.10;;;;;;;;;;5093283;28;20805;-71
2022/08/05 04:33:22;;;;;;;2.53;2.33;;;;;;;;;;5094440;28;20552;-71
2022/08/05 04:35:49;;;;;;;3.33;2.20;;;;;;;;;;5093721;28;20464;-72
2022/08/05 04:38:17;;;;;;;2.20;2.00;;;;;;;;;;5094332;28;20471;-72
2022/08/05 04:40:44;;;;;;;3.60;2.03;;;;;;;;;;5093397;28;20444;-73
2022/08/05 04:43:11;;;;;;;5.63;2.37;;;;;;;;;;5094092;28;20809;-71
2022/08/05 04:45:39;;;;;;;2.97;2.30;;;;;;;;;;5093633;28;20459;-70
2022/08/05 04:48:07;;;;;;;3.53;2.17;;;;;;;;;;5094446;28;20535;-71
2022/08/05 04:50:39;;;;;;;2.40;2.20;;;;;;;;;;5093977;28;20447;-71
2022/08/05 04:53:06;;;;;;;2.43;2.10;;;;;;;;;;5093922;28;20966;-71
2022/08/05 04:55:34;;;;;;;3.30;2.70;;;;;;;;;;5093880;28;20494;-71
2022/08/05 04:58:01;;;;;;;2.40;2.17;;;;;;;;;;5093506;28;20445;-71
2022/08/05 05:00:28;;;;;;;2.47;2.27;;;;;;;;;;5093402;28;20449;-71
2022/08/05 05:02:56;;;;;;;2.93;2.57;;;;;;;;;;5093240;28;20958;-71
2022/08/05 05:05:23;;;;;;;2.60;2.40;;;;;;;;;;5098229;28;20542;-71
2022/08/05 05:07:50;;;;;;;3.87;2.70;;;;;;;;;;5099696;28;20473;-71
2022/08/05 05:10:17;;;;;;;2.90;2.60;;;;;;;;;;5093157;28;20448;-71
2022/08/05 05:12:46;;;;;;;3.30;2.60;;;;;;;;;;5092799;28;20449;-71
2022/08/05 05:15:13;;;;;;;2.47;2.23;;;;;;;;;;5093426;28;21021;-71
2022/08/05 05:17:41;;;;;;;3.00;2.10;;;;;;;;;;5092719;28;20643;-71
2022/08/05 05:20:08;;;;;;;2.33;2.13;;;;;;;;;;5092904;28;20936;-71
2022/08/05 05:22:36;;;;;;;3.30;2.93;;;;;;;;;;5093559;28;20441;-71
2022/08/05 05:25:03;;;;;;;2.20;1.90;;;;;;;;;;5093562;28;20456;-71
2022/08/05 05:27:30;;;;;;;2.47;2.03;;;;;;;;;;5093020;28;20506;-71
2022/08/05 05:29:59;;;;;;;2.67;2.47;;;;;;;;;;5092650;28;20502;-70
2022/08/05 05:32:26;;;;;;;2.60;2.30;;;;;;;;;;5093403;28;20623;-72
2022/08/05 05:34:53;;;;;;;2.93;2.63;;;;;;;;;;5092666;28;20500;-71
2022/08/05 05:37:20;;;;;;;2.30;2.10;;;;;;;;;;5093028;28;20449;-72
2022/08/05 05:39:47;;;;;;;5.03;2.80;;;;;;;;;;5092457;28;20453;-71
2022/08/05 05:42:14;;;;;;;2.63;2.43;;;;;;;;;;5092911;28;20452;-71
2022/08/05 05:44:42;;;;;;;2.53;2.33;;;;;;;;;;5092532;28;20445;-71
2022/08/05 05:47:10;;;;;;;2.77;2.57;;;;;;;;;;5092778;28;20992;-71
2022/08/05 05:49:37;;;;;;;3.10;2.83;;;;;;;;;;5092362;28;20826;-69
2022/08/05 05:52:05;;;;;;;4.70;2.93;;;;;;;;;;5092457;28;20440;-72
2022/08/05 05:54:32;;;;;;;3.20;2.90;;;;;;;;;;5091737;28;20480;-71
2022/08/05 05:56:59;;;;;;;3.57;2.77;;;;;;;;;;5092314;28;20535;-73
2022/08/05 05:59:26;;;;;;;2.80;2.60;;;;;;;;;;5092526;28;20948;-72
2022/08/05 06:01:53;;;;;;;3.20;3.00;;;;;;;;;;5091877;28;20445;-73
2022/08/05 06:04:22;;;;;;;3.07;2.83;;;;;;;;;;5092838;28;20449;-71
2022/08/05 06:06:49;;;;;;;3.10;2.17;;;;;;;;;;5091508;28;20453;-72
2022/08/05 06:09:17;;;;;;;3.67;3.43;;;;;;;;;;5092666;28;20548;-71
2022/08/05 06:11:44;;;;;;;2.77;2.57;;;;;;;;;;5091387;28;20439;-72
2022/08/05 06:14:11;;;;;;;3.73;2.47;;;;;;;;;;5092371;28;20554;-71
2022/08/05 06:16:38;;;;;;;2.40;2.20;;;;;;;;;;5091650;28;20449;-71
2022/08/05 06:19:06;;;;;;;4.13;2.40;;;;;;;;;;5092712;28;20536;-72
2022/08/05 06:21:34;;;;;;;2.60;2.40;;;;;;;;;;5091949;28;20476;-71
2022/08/05 06:24:02;;;;;;;2.60;2.07;;;;;;;;;;5091521;28;20531;-71
2022/08/05 06:26:29;;;;;;;2.33;2.17;;;;;;;;;;5092282;28;20449;-71
2022/08/05 06:28:56;;;;;;;3.30;2.80;;;;;;;;;;5091842;28;20445;-72
2022/08/05 06:31:23;;;;;;;2.70;2.50;;;;;;;;;;5091826;28;20455;-71
2022/08/05 06:33:50;;;;;;;2.20;2.00;;;;;;;;;;5091271;28;20512;-71
2022/08/05 06:36:17;;;;;;;2.50;2.30;;;;;;;;;;5095461;28;20448;-72
2022/08/05 06:38:46;;;;;;;2.73;2.53;;;;;;;;;;5091412;28;20452;-72
2022/08/05 06:41:13;;;;;;;2.40;2.07;;;;;;;;;;5091574;28;20441;-72
2022/08/05 06:43:40;;;;;;;3.60;2.90;;;;;;;;;;5091021;28;20451;-71
2022/08/05 06:46:07;;;;;;;3.10;2.57;;;;;;;;;;5091779;28;20500;-71
2022/08/05 06:48:34;;;;;;;2.43;2.23;;;;;;;;;;5091985;28;20445;-71
2022/08/05 06:51:02;;;;;;;2.73;1.97;;;;;;;;;;5090759;28;20449;-71
2022/08/05 06:53:29;;;;;;;2.77;2.20;;;;;;;;;;5091411;28;20445;-71
2022/08/05 06:55:58;;;;;;;2.80;1.87;;;;;;;;;;5091384;28;20567;-72
2022/08/05 06:58:25;;;;;;;2.73;2.30;;;;;;;;;;5091954;28;20452;-72
2022/08/05 07:00:52;;;;;;;2.63;2.43;;;;;;;;;;5090615;28;20449;-72
2022/08/05 07:03:19;;;;;;;2.23;2.03;;;;;;;;;;5091297;28;20457;-71
2022/08/05 07:05:47;;;;;;;3.23;2.00;;;;;;;;;;5090732;28;20496;-72
2022/08/05 07:08:14;;;;;;;2.60;2.40;;;;;;;;;;5091502;28;20448;-72
2022/08/05 07:10:41;;;;;;;3.50;2.40;;;;;;;;;;5090710;28;20531;-71
2022/08/05 07:18:39;;;;;;;2.00;1.80;;;;;;;;;;5090794;28;20409;-71
2022/08/05 07:21:06;;;;;;;2.93;2.47;;;;;;;;;;5091235;28;20449;-72
2022/08/05 07:23:34;;;;;;;2.63;2.43;;;;;;;;;;5091319;28;20444;-72
2022/08/05 07:26:01;;;;;;;2.87;2.33;;;;;;;;;;5090815;28;20815;-71
2022/08/05 07:28:29;;;;;;;2.70;2.30;;;;;;;;;;5091030;28;20455;-72
2022/08/05 07:30:57;;;;;;;2.03;1.83;;;;;;;;;;5090477;28;20788;-72
2022/08/05 07:33:24;;;;;;;1.97;1.87;;;;;;;;;;5091638;28;20453;-72
2022/08/05 07:35:51;;;;;;;2.20;2.00;;;;;;;;;;5090508;28;20572;-72
2022/08/05 07:38:18;;;;;;;3.87;1.77;;;;;;;;;;5091250;28;20531;-72
2022/08/05 07:40:46;;;;;;;4.70;2.10;;;;;;;;;;5090276;28;20445;-71
2022/08/05 07:43:13;;;;;;;2.27;2.07;;;;;;;;;;5091064;28;20893;-72
2022/08/05 07:45:42;;;;;;;1.80;1.70;;;;;;;;;;5090855;28;20449;-71
2022/08/05 07:48:10;;;;;;;2.40;2.17;;;;;;;;;;5091400;28;20452;-72
2022/08/05 07:50:37;;;;;;;3.53;1.93;;;;;;;;;;5090977;28;20451;-72
2022/08/05 07:53:04;;;;;;;2.57;2.37;;;;;;;;;;5093584;28;20484;-72
2022/08/05 07:55:31;;;;;;;2.50;1.70;;;;;;;;;;5097279;28;20484;-72
2022/08/05 07:57:58;;;;;;;2.47;2.13;;;;;;;;;;5095703;28;20459;-72
2022/08/05 08:00:26;;;;;;;1.90;1.70;;;;;;;;;;5091243;28;20531;-72
2022/08/05 08:02:54;;;;;;;2.27;1.77;;;;;;;;;;5090585;28;20479;-72
2022/08/05 08:05:21;;;;;;;2.07;1.90;;;;;;;;;;5090976;28;20806;-72
2022/08/05 08:07:48;;;;;;;5.10;1.77;;;;;;;;;;5090508;28;20484;-72
2022/08/05 08:10:16;;;;;;;1.97;1.77;;;;;;;;;;5090536;28;20502;-72
2022/08/05 08:12:43;;;;;;;2.13;1.93;;;;;;;;;;5090857;28;20459;-72
2022/08/05 08:15:11;;;;;;;1.83;1.50;;;;;;;;;;5091100;28;20839;-72
2022/08/05 08:17:38;;;;;;;1.40;1.30;;;;;;;;;;5091855;28;20448;-69
2022/08/05 08:20:07;;;;;;;1.40;1.30;;;;;;;;;;5094659;28;20818;-72
2022/08/05 08:22:34;;;;;;;1.33;1.20;;;;;;;;;;5094621;28;20565;-72
2022/08/05 08:25:01;;;;;;;2.13;1.90;;;;;;;;;;5094134;28;20456;-72
2022/08/05 08:27:29;;;;;;;1.90;1.80;;;;;;;;;;5094609;28;20448;-72
2022/08/05 08:29:56;;;;;;;2.00;1.80;;;;;;;;;;5094167;28;20452;-72
2022/08/05 08:32:23;;;;;;;2.57;2.37;;;;;;;;;;5094669;28;20551;-71
2022/08/05 08:34:50;;;;;;;2.03;1.63;;;;;;;;;;5091296;28;20587;-71
2022/08/05 08:37:19;;;;;;;1.37;1.27;;;;;;;;;;5094231;28;20539;-73
2022/08/05 08:39:46;;;;;;;1.80;1.67;;;;;;;;;;5093485;28;20979;-71
2022/08/05 08:42:14;;;;;;;5.80;1.80;;;;;;;;;;5097201;28;20456;-73
2022/08/05 08:44:43;;;;;;;1.93;1.57;;;;;;;;;;5105705;28;20464;-72
2022/08/05 08:47:10;;;;;;;1.53;1.27;;;;;;;;;;5105765;28;20468;-72
2022/08/05 08:49:39;;;;;;;1.83;1.20;;;;;;;;;;5105330;28;20444;-69
2022/08/05 08:52:12;;;;;;;2.20;1.67;;;;;;;;;;5105927;28;20513;-72
2022/08/05 08:54:40;;;;;;;2.00;1.80;;;;;;;;;;5105128;28;20443;-71
2022/08/05 08:57:08;;;;;;;1.80;1.33;;;;;;;;;;5105024;28;20523;-71
2022/08/05 08:59:36;;;;;;;1.43;1.33;;;;;;;;;;5102916;28;20467;-70
2022/08/05 09:02:06;;;;;;;2.43;1.70;;;;;;;;;;5101622;28;20546;-72
2022/08/05 09:04:36;;;;;;;4.10;1.57;;;;;;;;;;5100293;28;20509;-72
2022/08/05 09:07:03;;;;;;;1.60;1.50;;;;;;;;;;5096134;28;20536;-72
2022/08/05 09:09:31;;;;;;;1.60;1.50;;;;;;;;;;5093506;28;20450;-72
2022/08/05 09:11:59;;;;;;;1.83;1.20;;;;;;;;;;5092811;28;20449;-72
2022/08/05 09:14:27;;;;;;;2.33;1.57;;;;;;;;;;5093797;28;20856;-72
2022/08/05 09:16:54;;;;;;;3.67;1.23;;;;;;;;;;5093251;28;20564;-72
2022/08/05 09:19:21;;;;;;;1.73;1.60;;;;;;;;;;5093457;28;20931;-72
2022/08/05 09:21:48;;;;;;;2.53;1.77;;;;;;;;;;5092073;28;20448;-72
2022/08/05 09:24:16;;;;;;;1.77;1.67;;;;;;;;;;5093667;28;20444;-73
2022/08/05 09:26:47;;;;;;;2.17;1.40;;;;;;;;;;5093082;28;20455;-72
2022/08/05 09:29:15;;;;;;;1.73;1.63;;;;;;;;;;5093217;28;20497;-72
2022/08/05 09:31:43;;;;;;;2.90;1.60;;;;;;;;;;5092782;28;20440;-72
2022/08/05 09:34:12;;;;;;;1.53;1.43;;;;;;;;;;5100149;28;20464;-72
2022/08/05 09:36:43;;;;;;;1.50;1.40;;;;;;;;;;5103826;28;20471;-71
2022/08/05 09:39:12;;;;;;;1.60;1.50;;;;;;;;;;5106310;28;20512;-71
2022/08/05 09:41:58;;;;;;;1.63;1.53;;;;;;;;;;5107993;28;20520;-70
2022/08/05 09:44:37;;;;;;;1.60;1.50;;;;;;;;;;5095471;28;20495;-72
2022/08/05 09:47:11;;;;;;;1.90;1.80;;;;;;;;;;5098988;28;20466;-72
2022/08/05 09:49:42;;;;;;;1.60;1.50;;;;;;;;;;5093039;28;20454;-71
2022/08/05 09:52:19;;;;;;;1.60;1.50;;;;;;;;;;5093046;28;20923;-72
2022/08/05 09:54:57;;;;;;;2.20;1.90;;;;;;;;;;5092648;28;20448;-72
2022/08/05 09:57:35;;;;;;;1.60;1.50;;;;;;;;;;5079976;28;20444;-72
2022/08/05 10:00:06;;;;;;;2.00;1.50;;;;;;;;;;5091476;28;20447;-72
2022/08/05 10:02:34;;;;;;;2.93;1.37;;;;;;;;;;5093060;28;20525;-72
2022/08/05 10:05:10;;;;;;;1.60;1.27;;;;;;;;;;5092020;28;20440;-72
2022/08/05 10:07:48;;;;;;;1.53;1.30;;;;;;;;;;5092689;28;20448;-72
2022/08/05 10:10:16;;;;;;;1.40;1.30;;;;;;;;;;5092325;28;20448;-72
2022/08/05 10:12:47;;;;;;;1.87;1.57;;;;;;;;;;5092092;28;20464;-71
2022/08/05 10:15:20;;;;;;;2.60;1.80;;;;;;;;;;5092174;28;20226;-72
2022/08/05 10:18:03;;;;;;;1.57;1.43;;;;;;;;;;5091594;28;20527;-72
2022/08/05 10:20:30;;;;;;;1.30;1.20;;;;;;;;;;5091998;28;20617;-71
2022/08/05 10:22:58;;;;;;;2.20;1.70;;;;;;;;;;5091468;28;20212;-72
2022/08/05 10:25:25;;;;;;;1.73;1.47;;;;;;;;;;5092585;28;20566;-71
2022/08/05 10:27:53;;;;;;;3.30;1.27;;;;;;;;;;5091744;28;20204;-71
2022/08/05 10:30:22;;;;;;;3.43;1.50;;;;;;;;;;5091635;28;20478;-72
2022/08/05 10:32:49;;;;;;;2.00;1.80;;;;;;;;;;5091836;28;20464;-72
2022/08/05 10:35:16;;;;;;;1.47;1.37;;;;;;;;;;5091871;28;20685;-72
2022/08/05 10:37:44;;;;;;;2.03;1.83;;;;;;;;;;5090504;28;20190;-71
2022/08/05 10:40:16;;;;;;;1.40;1.30;;;;;;;;;;5091390;28;20198;-72
2022/08/05 10:42:45;;;;;;;1.60;1.50;;;;;;;;;;5091720;28;20226;-71
2022/08/05 10:45:12;;;;;;;1.60;1.50;;;;;;;;;;5091968;28;20200;-71
2022/08/05 10:47:43;;;;;;;2.63;1.80;;;;;;;;;;5091680;28;20209;-71
2022/08/05 10:50:12;;;;;;;1.90;1.70;;;;;;;;;;5091707;28;20206;-71
2022/08/05 10:52:40;;;;;;;1.65;1.55;;;;;;;;;;5091236;28;20194;-71
2022/08/05 10:55:09;;;;;;;1.40;1.30;;;;;;;;;;5091566;28;20259;-71
2022/08/05 10:57:40;;;;;;;1.80;1.42;;;;;;;;;;5092078;28;20198;-72
2022/08/05 11:00:08;;;;;;;1.95;1.75;;;;;;;;;;5091587;28;20230;-72
2022/08/05 11:02:35;;;;;;;2.20;1.50;;;;;;;;;;5091652;28;20212;-73
2022/08/05 11:05:05;;;;;;;1.80;1.70;;;;;;;;;;5090774;28;20198;-71
2022/08/05 11:07:33;;;;;;;2.40;1.70;;;;;;;;;;5091407;28;20225;-72
2022/08/05 11:10:01;;;;;;;1.42;1.30;;;;;;;;;;5090572;28;20255;-71
2022/08/05 11:12:45;;;;;;;2.95;1.65;;;;;;;;;;5091303;28;20213;-71
2022/08/05 11:15:22;;;;;;;1.92;1.80;;;;;;;;;;5091625;28;20212;-71
2022/08/05 11:17:50;;;;;;;1.95;1.75;;;;;;;;;;5091049;28;20203;-72
2022/08/05 11:20:36;;;;;;;1.60;1.48;;;;;;;;;;5090850;28;20282;-72
2022/08/05 11:23:18;;;;;;;2.05;1.85;;;;;;;;;;5091532;28;20194;-72
2022/08/05 11:26:00;;;;;;;1.83;1.67;;;;;;;;;;5090518;28;20288;-72
2022/08/05 11:28:43;;;;;;;2.13;1.70;;;;;;;;;;5091330;28;20198;-72
2022/08/05 11:31:20;;;;;;;1.60;1.50;;;;;;;;;;5091076;28;20198;-71
2022/08/05 11:33:54;;;;;;;1.63;1.52;;;;;;;;;;5090953;28;20198;-72
2022/08/05 11:36:39;;;;;;;1.70;1.52;;;;;;;;;;5090973;28;20240;-72
2022/08/05 11:39:06;;;;;;;2.33;1.92;;;;;;;;;;5091408;28;20226;-72
2022/08/05 11:41:35;;;;;;;2.33;1.95;;;;;;;;;;5091555;28;20202;-72
2022/08/05 11:44:03;;;;;;;1.85;1.70;;;;;;;;;;5091553;28;20285;-72
2022/08/05 11:46:31;;;;;;;1.60;1.50;;;;;;;;;;5097911;28;20608;-73
2022/08/05 11:48:59;;;;;;;1.70;1.60;;;;;;;;;;5097978;28;20284;-71
2022/08/05 11:51:28;;;;;;;1.80;1.70;;;;;;;;;;5095657;28;20216;-72
2022/08/05 11:53:56;;;;;;;2.03;1.80;;;;;;;;;;5094613;28;20224;-72
2022/08/05 11:56:23;;;;;;;2.45;1.50;;;;;;;;;;5095314;28;20221;-72
2022/08/05 11:58:51;;;;;;;1.70;1.60;;;;;;;;;;5094696;28;20201;-72
2022/08/05 12:01:19;;;;;;;1.77;1.63;;;;;;;;;;5094927;28;20208;-72
2022/08/05 12:03:47;;;;;;;1.70;1.55;;;;;;;;;;5094926;28;20202;-72
2022/08/05 12:06:15;;;;;;;1.77;1.67;;;;;;;;;;5095303;28;20198;-72
2022/08/05 12:08:45;;;;;;;1.90;1.80;;;;;;;;;;5094253;28;20208;-71
2022/08/05 12:11:16;;;;;;;2.00;1.88;;;;;;;;;;5094364;28;20297;-71
2022/08/05 12:13:53;;;;;;;2.05;1.85;;;;;;;;;;5094116;28;20649;-72
2022/08/05 12:16:20;;;;;;;2.17;2.08;;;;;;;;;;5094488;28;20703;-72
2022/08/05 12:18:47;;;;;;;2.10;1.90;;;;;;;;;;5094186;28;20202;-71
2022/08/05 12:21:16;;;;;;;2.00;1.85;;;;;;;;;;5094106;28;20216;-72
2022/08/05 12:23:53;;;;;;;1.60;1.50;;;;;;;;;;5094080;28;20202;-72
2022/08/05 12:26:20;;;;;;;2.10;1.90;;;;;;;;;;5094432;28;20202;-72
2022/08/05 12:28:47;;;;;;;2.55;1.63;;;;;;;;;;5093590;28;20658;-72
2022/08/05 12:31:15;;;;;;;2.20;2.00;;;;;;;;;;5093609;28;20289;-72
2022/08/05 12:33:43;;;;;;;1.70;1.60;;;;;;;;;;5093666;28;20197;-72
2022/08/05 12:36:10;;;;;;;2.15;1.80;;;;;;;;;;5093823;28;20222;-71
2022/08/05 12:38:38;;;;;;;2.65;2.20;;;;;;;;;;5093850;28;20198;-69
2022/08/05 12:41:09;;;;;;;4.35;1.98;;;;;;;;;;5094096;28;20202;-72
2022/08/05 12:43:48;;;;;;;3.03;2.72;;;;;;;;;;5094229;28;20672;-72
2022/08/05 12:46:21;;;;;;;3.28;2.05;;;;;;;;;;5094336;28;20201;-72
2022/08/05 12:48:48;;;;;;;2.05;1.85;;;;;;;;;;5093712;28;20539;-72
2022/08/05 12:51:17;;;;;;;2.17;1.98;;;;;;;;;;5093686;28;20198;-72
2022/08/05 12:53:45;;;;;;;3.03;2.00;;;;;;;;;;5093455;28;20198;-72
2022/08/05 12:56:18;;;;;;;1.80;1.70;;;;;;;;;;5093793;28;20218;-72
2022/08/05 12:58:45;;;;;;;1.90;1.80;;;;;;;;;;5093193;28;20661;-72
2022/08/05 13:01:15;;;;;;;1.92;1.83;;;;;;;;;;5093678;28;20284;-72
2022/08/05 13:03:42;;;;;;;2.38;1.98;;;;;;;;;;5093073;28;20604;-72
2022/08/05 13:06:09;;;;;;;2.20;2.00;;;;;;;;;;5093557;28;20206;-71
2022/08/05 13:08:38;;;;;;;2.72;1.77;;;;;;;;;;5093644;28;20195;-72
2022/08/05 13:11:06;;;;;;;2.40;2.20;;;;;;;;;;5093776;28;20225;-71
2022/08/05 13:13:38;;;;;;;2.15;1.95;;;;;;;;;;5093940;28;20198;-72
2022/08/05 13:16:12;;;;;;;1.98;1.83;;;;;;;;;;5093773;28;20226;-72
2022/08/05 13:18:39;;;;;;;1.83;1.73;;;;;;;;;;5092938;28;20543;-72
2022/08/05 13:21:06;;;;;;;2.45;1.70;;;;;;;;;;5092929;28;20649;-72
2022/08/05 13:23:33;;;;;;;2.30;2.10;;;;;;;;;;5093482;28;20202;-72
2022/08/05 13:26:02;;;;;;;3.13;2.10;;;;;;;;;;5093025;28;20213;-72
2022/08/05 13:28:29;;;;;;;2.90;2.08;;;;;;;;;;5093736;28;20210;-72
2022/08/05 13:30:58;;;;;;;2.05;1.75;;;;;;;;;;5092425;28;20208;-72
2022/08/05 13:33:25;;;;;;;2.15;1.90;;;;;;;;;;5093591;28;20202;-72
2022/08/05 13:35:52;;;;;;;2.10;1.88;;;;;;;;;;5092538;28;20371;-72
2022/08/05 13:38:20;;;;;;;2.33;1.95;;;;;;;;;;5093133;28;20313;-72
2022/08/05 13:40:47;;;;;;;1.98;1.77;;;;;;;;;;5092060;28;20229;-72
2022/08/05 13:43:15;;;;;;;2.20;1.95;;;;;;;;;;5092982;28;20201;-72
2022/08/05 13:45:42;;;;;;;1.70;1.60;;;;;;;;;;5092627;28;20207;-71
2022/08/05 13:48:11;;;;;;;2.22;2.03;;;;;;;;;;5093113;28;20213;-71
2022/08/05 13:50:38;;;;;;;2.65;2.45;;;;;;;;;;5091980;28;20212;-70
2022/08/05 13:53:06;;;;;;;1.88;1.77;;;;;;;;;;5092949;28;20249;-72
2022/08/05 13:55:33;;;;;;;2.10;1.90;;;;;;;;;;5092787;28;20218;-72
2022/08/05 13:58:01;;;;;;;2.35;2.15;;;;;;;;;;5092469;28;20222;-72
2022/08/05 14:00:28;;;;;;;2.47;2.38;;;;;;;;;;5092637;28;20581;-72
2022/08/05 14:02:55;;;;;;;2.50;1.92;;;;;;;;;;5092401;28;20202;-72
2022/08/05 14:05:23;;;;;;;2.00;1.65;;;;;;;;;;5092523;28;20202;-73
2022/08/05 14:07:53;;;;;;;5.18;2.03;;;;;;;;;;5092081;28;20202;-72
2022/08/05 14:10:22;;;;;;;2.40;2.20;;;;;;;;;;5092207;28;20540;-72
2022/08/05 14:12:49;;;;;;;2.10;1.90;;;;;;;;;;5091980;28;20248;-72
2022/08/05 14:15:17;;;;;;;2.78;2.35;;;;;;;;;;5091874;28;20204;-72
2022/08/05 14:17:44;;;;;;;2.83;2.53;;;;;;;;;;5091474;28;20221;-73
2022/08/05 14:20:13;;;;;;;2.75;2.50;;;;;;;;;;5092214;28;20198;-73
2022/08/05 14:22:42;;;;;;;1.60;1.50;;;;;;;;;;5091696;28;20202;-73
2022/08/05 14:25:10;;;;;;;2.28;2.08;;;;;;;;;;5092562;28;20201;-72
2022/08/05 14:27:37;;;;;;;2.10;1.90;;;;;;;;;;5092329;28;20209;-73
2022/08/05 14:30:05;;;;;;;1.63;1.42;;;;;;;;;;5092739;28;20194;-73
2022/08/05 14:32:32;;;;;;;2.00;1.83;;;;;;;;;;5092921;28;20198;-72
2022/08/05 14:34:59;;;;;;;2.30;2.10;;;;;;;;;;5093454;28;20258;-73
2022/08/05 14:37:27;;;;;;;1.85;1.75;;;;;;;;;;5097232;28;20308;-73
2022/08/05 14:39:56;;;;;;;1.73;1.63;;;;;;;;;;5098452;28;20205;-73
2022/08/05 14:42:23;;;;;;;2.33;2.13;;;;;;;;;;5101619;28;20198;-73
2022/08/05 14:44:50;;;;;;;2.20;1.90;;;;;;;;;;5102646;28;20266;-72
2022/08/05 14:47:18;;;;;;;1.70;1.60;;;;;;;;;;5103959;28;20209;-71
2022/08/05 14:49:45;;;;;;;2.15;1.83;;;;;;;;;;5103786;28;20198;-72
2022/08/05 14:52:12;;;;;;;2.47;1.87;;;;;;;;;;5105397;28;20222;-73
2022/08/05 14:54:39;;;;;;;1.83;1.73;;;;;;;;;;5103689;28;20210;-69